Time;durP1;ratioP1;P1;durP2;ratioP2;P2;SDS_P1;SDS_P2;PMS_P1;PMS_P2;Temp;Humidity;BMP_temperature;BMP_pressure;BME280_temperature;BME280_humidity;BME280_pressure;Samples;Min_cycle;Max_cycle;Signal;HPM_P1;HPM_P2
2023/05/20 00:01:50;;;;;;;7.22;2.08;;;;;;;;;;4988111;28;20060;-70
2023/05/20 00:04:17;;;;;;;3.63;1.60;;;;;;;;;;5065959;28;20050;-72
2023/05/20 00:06:44;;;;;;;3.72;1.73;;;;;;;;;;5077907;28;20050;-71
2023/05/20 00:09:13;;;;;;;5.70;1.85;;;;;;;;;;5071404;28;20060;-72
2023/05/20 00:11:41;;;;;;;7.45;1.85;;;;;;;;;;5034895;28;20056;-70
2023/05/20 00:14:07;;;;;;;6.07;1.73;;;;;;;;;;5038357;28;20052;-72
2023/05/20 00:16:34;;;;;;;5.30;1.85;;;;;;;;;;5065302;28;20064;-73
2023/05/20 00:19:01;;;;;;;10.23;1.88;;;;;;;;;;5067986;28;20053;-74
2023/05/20 00:21:28;;;;;;;3.80;1.52;;;;;;;;;;5021215;28;20052;-72
2023/05/20 00:23:55;;;;;;;6.32;1.92;;;;;;;;;;5045146;28;20136;-73
2023/05/20 00:26:25;;;;;;;5.40;1.58;;;;;;;;;;5072470;28;20060;-71
2023/05/20 00:28:53;;;;;;;5.57;2.00;;;;;;;;;;5064228;28;20060;-74
2023/05/20 00:31:20;;;;;;;5.70;1.98;;;;;;;;;;5012855;28;20062;-71
2023/05/20 00:33:47;;;;;;;5.78;1.65;;;;;;;;;;4987377;28;20049;-70
2023/05/20 00:36:13;;;;;;;6.25;1.90;;;;;;;;;;5037223;28;20045;-71
2023/05/20 00:38:40;;;;;;;6.53;2.20;;;;;;;;;;5027686;28;20049;-73
2023/05/20 00:41:07;;;;;;;5.65;2.15;;;;;;;;;;5006753;28;20067;-71
2023/05/20 00:43:33;;;;;;;5.43;1.88;;;;;;;;;;5052269;28;20113;-72
2023/05/20 00:46:02;;;;;;;5.60;2.00;;;;;;;;;;5057535;28;20049;-73
2023/05/20 00:48:32;;;;;;;4.47;1.85;;;;;;;;;;5050190;28;20151;-73
2023/05/20 00:50:59;;;;;;;4.35;2.00;;;;;;;;;;5035963;28;20087;-71
2023/05/20 00:53:28;;;;;;;5.13;1.85;;;;;;;;;;5041560;28;20139;-73
2023/05/20 00:55:54;;;;;;;;;;;;;;;;;;5058216;28;20064;-72
2023/05/20 00:58:21;;;;;;;3.40;1.55;;;;;;;;;;5056367;28;19924;-70
2023/05/20 01:00:48;;;;;;;7.53;2.20;;;;;;;;;;5058245;28;20153;-69
2023/05/20 01:03:17;;;;;;;4.28;2.03;;;;;;;;;;5032994;28;20052;-73
2023/05/20 01:05:43;;;;;;;;;;;;;;;;;;5070483;28;20052;-72
2023/05/20 01:08:10;;;;;;;8.75;2.03;;;;;;;;;;5057886;28;19988;-72
2023/05/20 01:10:39;;;;;;;5.78;1.67;;;;;;;;;;5052263;28;20068;-72
2023/05/20 01:13:05;;;;;;;;;;;;;;;;;;5016858;28;20227;-71
2023/05/20 01:15:32;;;;;;;5.53;1.75;;;;;;;;;;5053434;28;19967;-73
2023/05/20 01:18:01;;;;;;;5.30;1.90;;;;;;;;;;5057957;28;20204;-73
2023/05/20 01:20:33;;;;;;;5.05;2.00;;;;;;;;;;5047347;28;20138;-71
2023/05/20 01:23:01;;;;;;;6.20;1.48;;;;;;;;;;4965735;28;20141;-70
2023/05/20 01:25:28;;;;;;;6.18;1.95;;;;;;;;;;4974258;28;20137;-69
2023/05/20 01:27:56;;;;;;;8.77;1.90;;;;;;;;;;4980018;28;20163;-70
2023/05/20 01:30:28;;;;;;;6.85;1.73;;;;;;;;;;4974184;28;20077;-71
2023/05/20 01:32:58;;;;;;;7.97;2.10;;;;;;;;;;4973586;28;20057;-72
2023/05/20 01:35:25;;;;;;;4.90;1.80;;;;;;;;;;4997738;28;20135;-70
2023/05/20 01:37:52;;;;;;;8.30;2.08;;;;;;;;;;5019575;28;20052;-70
2023/05/20 01:40:21;;;;;;;5.10;1.92;;;;;;;;;;5012798;28;20054;-69
2023/05/20 01:42:51;;;;;;;6.75;2.00;;;;;;;;;;4999854;28;20057;-73
2023/05/20 01:45:18;;;;;;;5.72;1.98;;;;;;;;;;5051247;28;20048;-68
2023/05/20 01:47:45;;;;;;;5.60;2.00;;;;;;;;;;5057498;28;20056;-74
2023/05/20 01:50:12;;;;;;;6.43;2.03;;;;;;;;;;5056106;28;20060;-71
2023/05/20 01:52:39;;;;;;;7.90;2.35;;;;;;;;;;5029005;28;20136;-71
2023/05/20 01:55:06;;;;;;;7.43;2.30;;;;;;;;;;5069649;28;20053;-71
2023/05/20 01:57:36;;;;;;;6.82;2.17;;;;;;;;;;5066930;28;20065;-71
2023/05/20 02:00:05;;;;;;;5.78;2.10;;;;;;;;;;5069697;28;20140;-72
2023/05/20 02:05:09;;;;;;;6.60;2.70;;;;;;;;;;5069892;27;20478;-73
2023/05/20 02:07:36;;;;;;;7.00;2.08;;;;;;;;;;5057088;28;20123;-72
2023/05/20 02:10:03;;;;;;;4.55;1.98;;;;;;;;;;5052342;28;20133;-73
2023/05/20 02:12:30;;;;;;;6.28;2.33;;;;;;;;;;5062342;28;20041;-73
2023/05/20 02:14:56;;;;;;;6.25;1.92;;;;;;;;;;5041782;28;20313;-73
2023/05/20 02:17:23;;;;;;;5.03;2.05;;;;;;;;;;5048909;28;20045;-72
2023/05/20 02:19:52;;;;;;;5.32;2.20;;;;;;;;;;5052436;28;20056;-72
2023/05/20 02:22:23;;;;;;;7.55;2.17;;;;;;;;;;5045314;28;20051;-70
2023/05/20 02:24:50;;;;;;;10.15;2.15;;;;;;;;;;5043692;28;20048;-70
2023/05/20 02:27:17;;;;;;;5.13;2.13;;;;;;;;;;5048446;28;20041;-72
2023/05/20 02:29:44;;;;;;;5.68;2.05;;;;;;;;;;5053614;28;20045;-68
2023/05/20 02:32:11;;;;;;;5.07;2.08;;;;;;;;;;5043886;28;20045;-75
2023/05/20 02:34:38;;;;;;;5.63;1.95;;;;;;;;;;4963710;28;20054;-66
2023/05/20 02:37:04;;;;;;;4.85;2.08;;;;;;;;;;4956233;28;20078;-70
2023/05/20 02:39:33;;;;;;;5.38;2.20;;;;;;;;;;5017375;28;20045;-69
2023/05/20 02:41:59;;;;;;;6.03;2.00;;;;;;;;;;5018908;28;20056;-72
2023/05/20 02:44:26;;;;;;;5.72;2.00;;;;;;;;;;5018653;28;20048;-72
2023/05/20 02:46:53;;;;;;;7.38;2.17;;;;;;;;;;5057689;28;20072;-70
2023/05/20 02:49:19;;;;;;;4.63;1.85;;;;;;;;;;5049328;28;20057;-69
2023/05/20 02:51:46;;;;;;;5.32;2.00;;;;;;;;;;5051796;28;20108;-71
2023/05/20 02:54:13;;;;;;;5.05;2.08;;;;;;;;;;5040695;28;20144;-69
2023/05/20 02:56:41;;;;;;;5.80;2.03;;;;;;;;;;5056718;28;20098;-69
2023/05/20 02:59:08;;;;;;;5.05;2.03;;;;;;;;;;5048928;28;20049;-73
2023/05/20 03:01:35;;;;;;;4.82;1.95;;;;;;;;;;5052525;28;20049;-71
2023/05/20 03:04:02;;;;;;;6.72;2.20;;;;;;;;;;5035085;28;20053;-73
2023/05/20 03:06:30;;;;;;;3.80;2.00;;;;;;;;;;5052319;28;20067;-69
2023/05/20 03:08:57;;;;;;;5.30;2.00;;;;;;;;;;5044692;28;20076;-70
2023/05/20 03:11:24;;;;;;;4.93;2.13;;;;;;;;;;5063910;28;20044;-73
2023/05/20 03:13:52;;;;;;;4.78;2.00;;;;;;;;;;5015591;28;20148;-67
2023/05/20 03:16:19;;;;;;;3.80;1.90;;;;;;;;;;5049904;28;20659;-71
2023/05/20 03:18:46;;;;;;;6.38;2.20;;;;;;;;;;5039417;28;20057;-72
2023/05/20 03:21:13;;;;;;;6.80;2.25;;;;;;;;;;5034758;28;20130;-71
2023/05/20 03:23:39;;;;;;;7.35;2.22;;;;;;;;;;5016592;28;20095;-73
2023/05/20 03:26:06;;;;;;;3.95;1.80;;;;;;;;;;5028470;28;20057;-69
2023/05/20 03:28:33;;;;;;;8.23;2.17;;;;;;;;;;5055868;28;20080;-69
2023/05/20 03:31:03;;;;;;;4.10;1.75;;;;;;;;;;5034399;28;20053;-72
2023/05/20 03:33:30;;;;;;;4.45;1.90;;;;;;;;;;5035238;28;20056;-72
2023/05/20 03:35:56;;;;;;;5.82;2.00;;;;;;;;;;5031868;28;20045;-69
2023/05/20 03:38:23;;;;;;;4.50;2.22;;;;;;;;;;5038869;28;20049;-73
2023/05/20 03:40:50;;;;;;;4.72;1.90;;;;;;;;;;5035616;28;20049;-70
2023/05/20 03:43:18;;;;;;;7.32;2.00;;;;;;;;;;5035678;28;20065;-69
2023/05/20 03:45:44;;;;;;;4.25;2.00;;;;;;;;;;5033813;28;20162;-69
2023/05/20 03:48:20;;;;;;;7.22;2.05;;;;;;;;;;5029911;28;20057;-72
2023/05/20 03:50:47;;;;;;;5.53;1.60;;;;;;;;;;5033753;28;20045;-72
2023/05/20 03:53:14;;;;;;;4.53;1.90;;;;;;;;;;5026121;28;20065;-70
2023/05/20 03:55:44;;;;;;;7.03;1.88;;;;;;;;;;4945540;28;20054;-69
2023/05/20 03:58:14;;;;;;;4.38;1.92;;;;;;;;;;4971371;28;20121;-68
2023/05/20 04:00:41;;;;;;;5.78;1.88;;;;;;;;;;4975163;28;20125;-72
2023/05/20 04:03:11;;;;;;;4.75;1.75;;;;;;;;;;4977152;28;20062;-69
2023/05/20 04:05:42;;;;;;;5.85;2.15;;;;;;;;;;5016662;28;20053;-71
2023/05/20 04:08:12;;;;;;;5.28;2.00;;;;;;;;;;5030270;28;20044;-69
2023/05/20 04:10:41;;;;;;;5.03;2.10;;;;;;;;;;5051578;28;20143;-72
2023/05/20 04:13:07;;;;;;;;;;;;;;;;;;5026294;28;20057;-71
2023/05/20 04:15:35;;;;;;;3.65;1.58;;;;;;;;;;5006735;28;19932;-69
2023/05/20 04:18:02;;;;;;;4.18;1.90;;;;;;;;;;5026236;28;20056;-70
2023/05/20 04:20:29;;;;;;;3.67;1.83;;;;;;;;;;5038573;28;20045;-73
2023/05/20 04:22:59;;;;;;;6.47;1.90;;;;;;;;;;5038888;28;20052;-73
2023/05/20 04:25:26;;;;;;;5.70;1.80;;;;;;;;;;5012744;28;20096;-71
2023/05/20 04:27:58;;;;;;;4.28;1.73;;;;;;;;;;5030498;28;20158;-71
2023/05/20 04:30:25;;;;;;;6.18;1.88;;;;;;;;;;5038024;28;20052;-72
2023/05/20 04:32:52;;;;;;;4.57;1.92;;;;;;;;;;5033099;28;20052;-71
2023/05/20 04:35:19;;;;;;;5.47;1.98;;;;;;;;;;4993826;28;20053;-72
2023/05/20 04:37:55;;;;;;;7.72;2.05;;;;;;;;;;4994472;28;20140;-71
2023/05/20 04:40:25;;;;;;;5.32;2.33;;;;;;;;;;4996634;28;20049;-71
2023/05/20 04:42:52;;;;;;;6.18;2.00;;;;;;;;;;4994707;28;20037;-70
2023/05/20 04:45:22;;;;;;;6.80;1.88;;;;;;;;;;4935344;28;20053;-72
2023/05/20 04:47:52;;;;;;;4.00;1.77;;;;;;;;;;4996146;28;20057;-72
2023/05/20 04:50:20;;;;;;;8.23;2.42;;;;;;;;;;5031263;28;20057;-72
2023/05/20 04:52:48;;;;;;;6.13;1.90;;;;;;;;;;5033387;28;20053;-72
2023/05/20 04:55:15;;;;;;;5.45;2.10;;;;;;;;;;4966801;28;20059;-70
2023/05/20 04:57:46;;;;;;;6.53;2.08;;;;;;;;;;4956944;28;20058;-71
2023/05/20 05:00:13;;;;;;;4.45;2.08;;;;;;;;;;4937993;28;20074;-69
2023/05/20 05:02:42;;;;;;;8.10;2.08;;;;;;;;;;4939528;28;20086;-69
2023/05/20 05:05:08;;;;;;;4.35;2.30;;;;;;;;;;4914403;28;20058;-69
2023/05/20 05:07:38;;;;;;;5.55;1.90;;;;;;;;;;4956223;28;20138;-70
2023/05/20 05:10:10;;;;;;;5.20;2.20;;;;;;;;;;4932769;28;20055;-69
2023/05/20 05:12:37;;;;;;;4.18;2.10;;;;;;;;;;4955549;28;20058;-70
2023/05/20 05:15:11;;;;;;;7.43;2.05;;;;;;;;;;4920617;28;20070;-70
2023/05/20 05:17:39;;;;;;;4.32;2.10;;;;;;;;;;4969702;28;20061;-70
2023/05/20 05:20:08;;;;;;;5.72;2.17;;;;;;;;;;4980098;28;20091;-71
2023/05/20 05:22:38;;;;;;;8.02;2.08;;;;;;;;;;5050928;28;20049;-69
2023/05/20 05:25:12;;;;;;;6.72;1.90;;;;;;;;;;4962753;28;20061;-69
2023/05/20 05:27:41;;;;;;;4.45;1.58;;;;;;;;;;5035984;28;20080;-69
2023/05/20 05:30:12;;;;;;;4.97;1.92;;;;;;;;;;5031238;28;20059;-73
2023/05/20 05:32:41;;;;;;;4.95;2.10;;;;;;;;;;5036041;28;20072;-68
2023/05/20 05:35:10;;;;;;;7.80;2.10;;;;;;;;;;4991972;28;20044;-70
2023/05/20 05:37:40;;;;;;;6.10;2.03;;;;;;;;;;5042189;28;20144;-72
2023/05/20 05:40:10;;;;;;;5.97;2.28;;;;;;;;;;5014379;28;20059;-72
2023/05/20 05:42:37;;;;;;;4.10;2.05;;;;;;;;;;5016430;28;20063;-71
2023/05/20 05:57:37;;;;;;;5.85;1.92;;;;;;;;;;5070630;27;1550736;-70
2023/05/20 06:00:08;;;;;;;6.47;2.35;;;;;;;;;;5093174;28;20052;-69
2023/05/20 06:02:37;;;;;;;4.18;1.90;;;;;;;;;;5091593;28;20140;-70
2023/05/20 06:05:03;;;;;;;3.22;1.67;;;;;;;;;;5063323;28;20072;-69
2023/05/20 06:07:30;;;;;;;5.80;2.20;;;;;;;;;;5038708;28;20053;-69
2023/05/20 06:09:59;;;;;;;6.30;2.08;;;;;;;;;;5040270;28;20060;-69
2023/05/20 06:12:25;;;;;;;;;;;;;;;;;;5046032;28;20063;-68
2023/05/20 06:14:56;;;;;;;4.65;1.67;;;;;;;;;;5025575;28;19956;-69
2023/05/20 06:17:23;;;;;;;6.97;1.85;;;;;;;;;;5023833;28;20124;-69
2023/05/20 06:19:51;;;;;;;7.10;1.73;;;;;;;;;;5041472;28;20060;-70
2023/05/20 06:22:19;;;;;;;6.20;2.07;;;;;;;;;;5054736;28;20099;-69
2023/05/20 06:24:46;;;;;;;4.65;1.98;;;;;;;;;;5024715;28;20111;-72
2023/05/20 06:27:12;;;;;;;6.07;2.33;;;;;;;;;;5039665;28;20045;-72
2023/05/20 06:29:39;;;;;;;4.97;1.83;;;;;;;;;;5052166;28;20067;-71
2023/05/20 06:32:10;;;;;;;6.00;2.35;;;;;;;;;;5037827;28;20053;-72
2023/05/20 06:34:37;;;;;;;5.88;1.70;;;;;;;;;;5043674;28;20143;-72
2023/05/20 06:37:03;;;;;;;5.00;1.90;;;;;;;;;;4988809;28;20044;-72
2023/05/20 06:39:33;;;;;;;5.25;1.85;;;;;;;;;;5066277;28;20080;-72
2023/05/20 06:42:00;;;;;;;3.63;1.90;;;;;;;;;;5042414;28;20053;-72
2023/05/20 06:44:26;;;;;;;5.80;2.00;;;;;;;;;;5032780;28;20057;-71
2023/05/20 06:46:54;;;;;;;4.50;2.00;;;;;;;;;;5012279;28;20052;-71
2023/05/20 06:49:23;;;;;;;4.22;1.90;;;;;;;;;;5034381;28;20057;-72
2023/05/20 06:51:50;;;;;;;4.18;1.63;;;;;;;;;;5030989;28;20050;-70
2023/05/20 06:54:18;;;;;;;5.10;2.00;;;;;;;;;;5018784;28;20205;-72
2023/05/20 06:56:45;;;;;;;6.38;2.05;;;;;;;;;;5018435;28;20057;-70
2023/05/20 06:59:14;;;;;;;3.17;1.73;;;;;;;;;;5037911;28;20122;-69
2023/05/20 07:01:41;;;;;;;4.63;2.08;;;;;;;;;;5032372;28;20152;-69
2023/05/20 07:04:08;;;;;;;4.20;1.85;;;;;;;;;;5025204;28;20087;-69
2023/05/20 07:06:40;;;;;;;7.45;2.20;;;;;;;;;;5026529;28;20110;-68
2023/05/20 07:09:07;;;;;;;5.78;1.60;;;;;;;;;;5016942;28;20063;-68
2023/05/20 07:11:33;;;;;;;3.75;1.73;;;;;;;;;;5021892;28;20056;-69
2023/05/20 07:14:00;;;;;;;4.65;1.65;;;;;;;;;;5008895;28;20055;-71
2023/05/20 07:16:28;;;;;;;4.68;1.83;;;;;;;;;;5002069;28;20120;-68
2023/05/20 07:18:54;;;;;;;6.05;1.60;;;;;;;;;;5035590;28;20064;-69
2023/05/20 07:21:21;;;;;;;7.50;2.05;;;;;;;;;;5021211;28;20056;-69
2023/05/20 07:23:50;;;;;;;4.18;1.98;;;;;;;;;;5017875;28;20052;-69
2023/05/20 07:26:17;;;;;;;4.03;1.92;;;;;;;;;;5019184;28;20739;-72
2023/05/20 07:28:45;;;;;;;7.57;1.90;;;;;;;;;;5023929;28;20098;-72
2023/05/20 07:31:14;;;;;;;4.47;1.85;;;;;;;;;;5027127;28;20058;-72
2023/05/20 07:33:41;;;;;;;;;;;;;;;;;;5032587;28;20057;-72
2023/05/20 07:36:07;;;;;;;4.05;1.90;;;;;;;;;;4982060;28;19935;-71
2023/05/20 07:38:34;;;;;;;5.00;1.80;;;;;;;;;;5019179;28;20144;-69
2023/05/20 07:41:05;;;;;;;2.42;1.40;;;;;;;;;;5015678;28;20053;-69
2023/05/20 07:43:32;;;;;;;4.97;2.08;;;;;;;;;;5002594;28;20057;-69
2023/05/20 07:46:00;;;;;;;3.50;1.83;;;;;;;;;;4972733;28;20057;-70
2023/05/20 07:48:27;;;;;;;5.00;1.77;;;;;;;;;;5025030;28;20055;-70
2023/05/20 07:50:56;;;;;;;3.38;1.70;;;;;;;;;;5034010;28;20044;-69
2023/05/20 07:53:25;;;;;;;9.50;1.80;;;;;;;;;;5036473;28;20249;-69
2023/05/20 07:55:53;;;;;;;4.25;1.45;;;;;;;;;;5012605;28;20056;-67
2023/05/20 07:58:21;;;;;;;5.32;1.92;;;;;;;;;;5033782;28;20052;-69
2023/05/20 08:00:48;;;;;;;4.57;1.52;;;;;;;;;;5032095;28;20141;-69
2023/05/20 08:03:20;;;;;;;4.47;1.77;;;;;;;;;;5020105;28;20061;-69
2023/05/20 08:05:53;;;;;;;4.68;1.60;;;;;;;;;;5003218;28;20073;-69
2023/05/20 08:08:20;;;;;;;6.22;2.05;;;;;;;;;;5020913;28;20159;-69
2023/05/20 08:10:48;;;;;;;3.88;1.40;;;;;;;;;;5037752;28;20054;-70
2023/05/20 08:13:16;;;;;;;3.60;1.58;;;;;;;;;;5034962;28;20053;-69
2023/05/20 08:15:43;;;;;;;;;;;;;;;;;;5020597;28;20068;-69
2023/05/20 08:18:14;;;;;;;6.90;1.70;;;;;;;;;;5036557;28;20127;-69
2023/05/20 08:20:41;;;;;;;3.88;1.60;;;;;;;;;;5038424;28;20045;-69
2023/05/20 08:23:10;;;;;;;4.78;1.80;;;;;;;;;;5039628;28;20151;-70
2023/05/20 08:25:39;;;;;;;;;;;;;;;;;;5008398;28;20103;-70
2023/05/20 08:28:11;;;;;;;3.70;1.50;;;;;;;;;;5005165;28;19932;-70
2023/05/20 08:30:37;;;;;;;;;;;;;;;;;;5017844;28;20065;-72
2023/05/20 08:33:07;;;;;;;4.53;1.52;;;;;;;;;;5022952;28;19929;-69
2023/05/20 08:35:39;;;;;;;4.13;1.60;;;;;;;;;;5026353;28;20077;-69
2023/05/20 08:38:08;;;;;;;8.48;2.03;;;;;;;;;;5009910;28;20116;-69
2023/05/20 08:40:36;;;;;;;5.47;2.22;;;;;;;;;;5016533;28;20050;-70
2023/05/20 08:43:06;;;;;;;4.65;2.00;;;;;;;;;;5014274;28;20068;-69
2023/05/20 08:45:33;;;;;;;5.60;2.17;;;;;;;;;;5008325;28;20080;-69
2023/05/20 08:48:03;;;;;;;7.10;1.98;;;;;;;;;;5023062;28;20144;-69
2023/05/20 08:50:32;;;;;;;4.88;1.75;;;;;;;;;;5036746;28;20056;-70
2023/05/20 08:53:00;;;;;;;4.63;1.77;;;;;;;;;;5024543;28;20079;-69
2023/05/20 08:55:42;;;;;;;6.22;1.95;;;;;;;;;;5021796;28;20170;-70
2023/05/20 08:58:09;;;;;;;5.10;1.90;;;;;;;;;;5007651;28;20045;-69
2023/05/20 09:00:37;;;;;;;7.20;1.88;;;;;;;;;;5021671;28;20136;-69
2023/05/20 09:03:04;;;;;;;6.32;1.90;;;;;;;;;;5016023;28;20083;-68
2023/05/20 09:05:31;;;;;;;4.70;1.88;;;;;;;;;;5017523;28;20111;-67
2023/05/20 09:08:11;;;;;;;5.35;2.03;;;;;;;;;;5008919;28;20053;-72
2023/05/20 09:10:38;;;;;;;4.90;1.77;;;;;;;;;;5031680;28;20060;-72
2023/05/20 09:13:06;;;;;;;4.63;1.70;;;;;;;;;;5016973;28;20079;-71
2023/05/20 09:15:36;;;;;;;4.25;1.58;;;;;;;;;;4977948;28;20080;-73
2023/05/20 09:18:03;;;;;;;3.90;1.70;;;;;;;;;;4978142;28;20049;-71
2023/05/20 09:20:30;;;;;;;6.05;1.92;;;;;;;;;;5024648;28;20056;-70
2023/05/20 09:23:02;;;;;;;4.45;1.77;;;;;;;;;;5020118;28;20049;-71
2023/05/20 09:25:31;;;;;;;5.75;1.90;;;;;;;;;;5024711;28;20059;-70
2023/05/20 09:27:57;;;;;;;;;;;;;;;;;;5022525;28;20052;-70
2023/05/20 09:30:24;;;;;;;3.17;1.50;;;;;;;;;;5033629;28;19935;-70
2023/05/20 09:32:54;;;;;;;7.40;1.70;;;;;;;;;;5030845;28;20049;-71
2023/05/20 09:35:22;;;;;;;3.97;1.60;;;;;;;;;;5023932;28;20077;-69
2023/05/20 09:37:58;;;;;;;7.05;1.42;;;;;;;;;;5037956;28;20061;-71
2023/05/20 09:40:28;;;;;;;4.13;1.60;;;;;;;;;;5035997;28;20106;-70
2023/05/20 09:42:57;;;;;;;4.90;1.50;;;;;;;;;;5042635;28;20056;-71
2023/05/20 09:45:24;;;;;;;3.28;1.58;;;;;;;;;;5029741;28;20072;-71
2023/05/20 09:47:53;;;;;;;3.05;1.30;;;;;;;;;;5018949;28;20064;-73
2023/05/20 09:50:21;;;;;;;4.28;1.58;;;;;;;;;;5023183;28;20048;-69
2023/05/20 09:52:48;;;;;;;4.68;1.40;;;;;;;;;;5041342;28;20253;-70
2023/05/20 09:55:16;;;;;;;3.45;1.40;;;;;;;;;;5015613;28;20041;-70
2023/05/20 09:57:43;;;;;;;4.10;1.50;;;;;;;;;;4984045;28;20072;-69
2023/05/20 10:00:13;;;;;;;2.97;1.50;;;;;;;;;;4973066;28;20080;-71
2023/05/20 10:02:44;;;;;;;3.25;1.20;;;;;;;;;;4995671;28;20084;-70
2023/05/20 10:05:16;;;;;;;5.05;1.30;;;;;;;;;;4991393;28;20050;-71
2023/05/20 10:08:02;;;;;;;2.72;1.30;;;;;;;;;;4996116;28;20050;-70
2023/05/20 10:10:34;;;;;;;1.90;1.20;;;;;;;;;;5008055;28;20045;-70
2023/05/20 10:13:08;;;;;;;2.78;1.52;;;;;;;;;;4997175;28;20077;-71
2023/05/20 10:15:41;;;;;;;3.17;1.40;;;;;;;;;;4996290;28;20140;-71
2023/05/20 10:18:11;;;;;;;2.17;1.13;;;;;;;;;;4992013;28;20050;-69
2023/05/20 10:20:47;;;;;;;3.35;1.80;;;;;;;;;;4995080;28;20065;-70
2023/05/20 10:23:20;;;;;;;2.42;1.40;;;;;;;;;;4998578;28;20071;-70
2023/05/20 10:25:52;;;;;;;5.72;1.10;;;;;;;;;;4995274;28;20140;-69
2023/05/20 10:28:28;;;;;;;4.20;1.25;;;;;;;;;;4997348;28;20053;-69
2023/05/20 10:30:57;;;;;;;3.08;1.60;;;;;;;;;;5005220;28;20049;-70
2023/05/20 10:33:34;;;;;;;5.75;1.40;;;;;;;;;;5007694;28;20061;-70
2023/05/20 10:36:05;;;;;;;3.65;1.52;;;;;;;;;;4978889;28;20065;-70
2023/05/20 10:38:39;;;;;;;5.45;1.70;;;;;;;;;;5016330;28;20107;-70
2023/05/20 10:41:10;;;;;;;4.63;1.40;;;;;;;;;;5001592;28;20064;-70
2023/05/20 10:43:36;;;;;;;2.47;1.30;;;;;;;;;;5018263;28;20057;-69
2023/05/20 10:46:17;;;;;;;8.00;1.55;;;;;;;;;;4999488;28;20064;-71
2023/05/20 10:48:45;;;;;;;5.20;1.25;;;;;;;;;;5021064;28;20092;-71
2023/05/20 10:51:14;;;;;;;3.70;1.20;;;;;;;;;;5023608;28;20099;-70
2023/05/20 10:53:43;;;;;;;2.75;1.38;;;;;;;;;;5016033;28;20121;-69
2023/05/20 10:56:20;;;;;;;4.05;1.45;;;;;;;;;;5009079;28;20136;-70
2023/05/20 10:58:50;;;;;;;2.92;1.45;;;;;;;;;;5035265;28;20056;-70
2023/05/20 11:01:19;;;;;;;7.03;1.50;;;;;;;;;;5028807;28;20045;-70
2023/05/20 11:03:46;;;;;;;3.97;1.23;;;;;;;;;;5016292;28;20041;-71
2023/05/20 11:06:13;;;;;;;2.78;1.50;;;;;;;;;;5008103;28;20072;-70
2023/05/20 11:08:40;;;;;;;3.05;1.38;;;;;;;;;;5018282;28;20053;-70
2023/05/20 11:11:07;;;;;;;3.00;1.50;;;;;;;;;;5025664;28;20060;-67
2023/05/20 11:13:33;;;;;;;5.20;1.30;;;;;;;;;;5019455;28;20053;-70
2023/05/20 11:16:01;;;;;;;2.20;1.40;;;;;;;;;;4992894;28;20082;-69
2023/05/20 11:18:30;;;;;;;3.75;1.27;;;;;;;;;;5025382;28;20072;-77
2023/05/20 11:20:59;;;;;;;3.58;1.30;;;;;;;;;;5030952;28;20045;-71
2023/05/20 11:23:26;;;;;;;2.72;1.40;;;;;;;;;;5017009;28;20061;-71
2023/05/20 11:25:54;;;;;;;4.88;1.60;;;;;;;;;;5016042;28;20057;-71
2023/05/20 11:28:21;;;;;;;4.68;1.60;;;;;;;;;;5016392;28;20048;-73
2023/05/20 11:30:48;;;;;;;2.25;1.25;;;;;;;;;;5031231;28;20076;-71
2023/05/20 11:33:16;;;;;;;3.67;1.27;;;;;;;;;;5021224;28;20049;-70
2023/05/20 11:35:46;;;;;;;5.05;1.40;;;;;;;;;;5020261;28;20140;-71
2023/05/20 11:38:13;;;;;;;3.95;1.10;;;;;;;;;;4973147;28;20064;-70
2023/05/20 11:40:48;;;;;;;2.88;1.10;;;;;;;;;;5029827;28;20152;-71
2023/05/20 11:43:26;;;;;;;2.90;1.23;;;;;;;;;;5018370;28;20140;-72
2023/05/20 11:45:54;;;;;;;3.70;1.17;;;;;;;;;;4998033;28;20060;-73
2023/05/20 11:48:22;;;;;;;2.40;1.20;;;;;;;;;;5010686;28;20902;-74
2023/05/20 11:50:50;;;;;;;2.28;1.30;;;;;;;;;;5022760;28;20164;-73
2023/05/20 11:53:23;;;;;;;3.75;1.25;;;;;;;;;;5039328;28;20053;-72
2023/05/20 11:55:54;;;;;;;4.18;1.33;;;;;;;;;;5004295;28;20259;-74
2023/05/20 11:58:25;;;;;;;2.90;1.23;;;;;;;;;;4975744;28;20065;-72
2023/05/20 12:00:54;;;;;;;6.95;1.50;;;;;;;;;;5016444;28;20054;-74
2023/05/20 12:03:21;;;;;;;3.65;1.50;;;;;;;;;;5022676;28;20055;-72
2023/05/20 12:05:51;;;;;;;7.30;1.33;;;;;;;;;;5005557;28;20041;-74
2023/05/20 12:08:19;;;;;;;2.35;1.15;;;;;;;;;;4954242;28;20053;-73
2023/05/20 12:10:46;;;;;;;4.43;1.77;;;;;;;;;;5017041;28;20073;-73
2023/05/20 12:13:13;;;;;;;6.57;1.50;;;;;;;;;;5022757;28;20064;-73
2023/05/20 12:15:45;;;;;;;3.40;1.35;;;;;;;;;;5003089;28;20073;-73
2023/05/20 12:18:15;;;;;;;3.60;1.35;;;;;;;;;;4922028;28;20061;-73
2023/05/20 12:20:42;;;;;;;2.17;1.20;;;;;;;;;;4977174;28;20168;-73
2023/05/20 12:23:13;;;;;;;2.08;1.38;;;;;;;;;;4981517;28;20069;-73
2023/05/20 12:25:50;;;;;;;2.63;1.27;;;;;;;;;;4999845;28;20077;-74
2023/05/20 12:28:17;;;;;;;3.05;1.20;;;;;;;;;;4959465;28;20060;-73
2023/05/20 12:30:44;;;;;;;2.38;1.33;;;;;;;;;;4987374;28;20077;-73
2023/05/20 12:33:16;;;;;;;4.20;1.27;;;;;;;;;;5019988;28;20123;-73
2023/05/20 12:35:46;;;;;;;3.03;1.23;;;;;;;;;;5019573;28;20057;-74
2023/05/20 12:38:13;;;;;;;1.95;1.23;;;;;;;;;;4967421;28;20045;-73
2023/05/20 12:40:39;;;;;;;2.88;1.08;;;;;;;;;;5016736;28;20057;-71
2023/05/20 12:43:07;;;;;;;1.75;1.17;;;;;;;;;;5012737;28;20132;-71
2023/05/20 12:45:34;;;;;;;4.68;1.25;;;;;;;;;;5019320;28;20053;-71
2023/05/20 12:48:01;;;;;;;3.60;1.30;;;;;;;;;;4965528;28;20061;-71
2023/05/20 12:50:28;;;;;;;2.95;1.38;;;;;;;;;;5018267;28;20049;-70
2023/05/20 12:52:55;;;;;;;2.40;1.25;;;;;;;;;;5013374;28;20053;-70
2023/05/20 12:55:22;;;;;;;3.05;1.30;;;;;;;;;;5017622;28;20049;-71
2023/05/20 12:57:48;;;;;;;2.10;1.05;;;;;;;;;;4999486;28;20143;-70
2023/05/20 13:00:20;;;;;;;2.90;1.30;;;;;;;;;;5012687;28;20058;-69
2023/05/20 13:02:46;;;;;;;3.22;1.27;;;;;;;;;;5033453;28;20061;-71
2023/05/20 13:05:13;;;;;;;2.70;1.30;;;;;;;;;;5037272;28;20131;-71
2023/05/20 13:07:42;;;;;;;3.05;1.35;;;;;;;;;;5018002;28;20053;-70
2023/05/20 13:10:11;;;;;;;2.95;1.50;;;;;;;;;;5019973;28;20057;-71
2023/05/20 13:12:38;;;;;;;3.17;1.17;;;;;;;;;;5029803;28;20122;-70
2023/05/20 13:15:06;;;;;;;3.25;1.10;;;;;;;;;;5017488;28;20076;-71
2023/05/20 13:17:34;;;;;;;3.50;1.23;;;;;;;;;;5025700;28;20197;-76
2023/05/20 13:20:00;;;;;;;2.97;1.20;;;;;;;;;;5008678;28;20136;-72
2023/05/20 13:22:27;;;;;;;7.13;1.30;;;;;;;;;;5027989;28;20132;-72
2023/05/20 13:24:55;;;;;;;5.15;1.35;;;;;;;;;;5016154;28;20069;-71
2023/05/20 13:27:22;;;;;;;2.22;1.10;;;;;;;;;;5028427;28;20056;-71
2023/05/20 13:29:50;;;;;;;2.50;1.30;;;;;;;;;;5014673;28;20060;-71
2023/05/20 13:32:16;;;;;;;4.20;1.30;;;;;;;;;;5025322;28;20057;-72
2023/05/20 13:34:45;;;;;;;2.20;1.35;;;;;;;;;;5015025;28;20125;-70
2023/05/20 13:37:12;;;;;;;5.20;1.80;;;;;;;;;;5017273;28;20131;-73
2023/05/20 13:39:38;;;;;;;4.22;1.48;;;;;;;;;;5040357;28;20063;-69
2023/05/20 13:42:05;;;;;;;2.50;1.20;;;;;;;;;;5018821;28;20119;-71
2023/05/20 13:44:40;;;;;;;3.85;1.38;;;;;;;;;;5029624;28;20063;-75
2023/05/20 13:47:16;;;;;;;11.75;2.30;;;;;;;;;;4983990;28;20130;-71
2023/05/20 13:49:44;;;;;;;8.95;2.25;;;;;;;;;;5028693;28;20054;-72
2023/05/20 13:52:13;;;;;;;14.40;2.40;;;;;;;;;;5020130;28;20192;-72
2023/05/20 13:54:41;;;;;;;7.30;1.90;;;;;;;;;;5014306;28;20053;-71
2023/05/20 13:57:08;;;;;;;8.75;1.80;;;;;;;;;;5015877;28;20138;-71
2023/05/20 13:59:46;;;;;;;4.28;1.88;;;;;;;;;;5028876;28;20049;-71
2023/05/20 14:02:18;;;;;;;8.73;1.83;;;;;;;;;;5024864;28;20049;-71
2023/05/20 14:04:46;;;;;;;9.68;1.80;;;;;;;;;;5028678;28;20064;-71
2023/05/20 14:07:15;;;;;;;4.57;1.65;;;;;;;;;;5008016;28;20060;-71
2023/05/20 14:09:42;;;;;;;4.68;1.80;;;;;;;;;;5024885;28;20103;-71
2023/05/20 14:12:09;;;;;;;2.47;1.40;;;;;;;;;;5010215;28;20064;-71
2023/05/20 14:14:36;;;;;;;5.18;1.70;;;;;;;;;;5018077;28;20068;-70
2023/05/20 14:17:03;;;;;;;4.32;1.77;;;;;;;;;;4999643;28;20063;-70
2023/05/20 14:19:30;;;;;;;4.65;1.60;;;;;;;;;;5040141;28;20063;-70
2023/05/20 14:22:00;;;;;;;3.40;1.50;;;;;;;;;;5024926;28;20163;-70
2023/05/20 14:24:28;;;;;;;3.88;1.25;;;;;;;;;;5043414;28;20055;-70
2023/05/20 14:26:55;;;;;;;2.00;1.20;;;;;;;;;;5025897;28;20144;-71
2023/05/20 14:29:22;;;;;;;4.30;1.48;;;;;;;;;;5026921;28;20052;-73
2023/05/20 14:31:49;;;;;;;11.45;1.40;;;;;;;;;;5026483;28;20056;-67
2023/05/20 14:34:18;;;;;;;4.32;1.50;;;;;;;;;;5018928;28;20065;-71
2023/05/20 14:36:46;;;;;;;4.10;1.40;;;;;;;;;;5020109;28;20057;-73
2023/05/20 14:39:15;;;;;;;4.65;1.40;;;;;;;;;;5040760;28;20072;-73
2023/05/20 14:41:42;;;;;;;4.18;1.40;;;;;;;;;;5032037;28;20057;-73
2023/05/20 14:44:09;;;;;;;2.58;1.30;;;;;;;;;;5034995;28;20053;-73
2023/05/20 14:46:36;;;;;;;2.88;1.50;;;;;;;;;;5015419;28;20052;-71
2023/05/20 14:49:08;;;;;;;3.47;1.40;;;;;;;;;;5020833;28;20053;-74
2023/05/20 14:51:35;;;;;;;2.55;1.20;;;;;;;;;;5032546;28;20052;-74
2023/05/20 14:54:02;;;;;;;3.47;1.50;;;;;;;;;;5032501;28;20067;-73
2023/05/20 14:56:30;;;;;;;2.50;1.23;;;;;;;;;;5036297;28;20060;-73
2023/05/20 14:59:01;;;;;;;1.83;1.10;;;;;;;;;;5009903;28;20152;-73
2023/05/20 15:01:28;;;;;;;1.52;1.05;;;;;;;;;;5034847;28;20077;-73
2023/05/20 15:03:56;;;;;;;3.17;1.35;;;;;;;;;;5019885;28;20064;-73
2023/05/20 15:06:32;;;;;;;2.20;1.20;;;;;;;;;;5016939;28;20053;-75
2023/05/20 15:08:59;;;;;;;2.20;1.10;;;;;;;;;;5013353;28;20085;-73